Time;durP1;ratioP1;P1;durP2;ratioP2;P2;SDS_P1;SDS_P2;PMS_P1;PMS_P2;Temp;Humidity;BMP_temperature;BMP_pressure;BME280_temperature;BME280_humidity;BME280_pressure;Samples;Min_cycle;Max_cycle;Signal;HPM_P1;HPM_P2
2022/01/01 00:02:22;;;;;;;19.27;6.40;;;13.70;99.90;;;;;;4695973;30;20042;-73
2022/01/01 00:04:48;;;;;;;22.75;7.00;;;13.60;99.90;;;;;;4696207;30;20176;-73
2022/01/01 00:07:15;;;;;;;26.20;8.50;;;13.70;99.90;;;;;;4694703;30;20120;-73
2022/01/01 00:09:43;;;;;;;24.23;8.93;;;13.70;99.90;;;;;;4696027;30;20070;-73
2022/01/01 00:12:09;;;;;;;16.35;6.05;;;13.70;99.90;;;;;;4696410;30;20490;-73
2022/01/01 00:14:36;;;;;;;17.20;5.10;;;13.70;99.90;;;;;;4695961;30;20068;-74
2022/01/01 00:17:02;;;;;;;19.73;6.38;;;13.80;99.90;;;;;;4695540;30;20041;-74
2022/01/01 00:19:27;;;;;;;;;;;13.80;99.90;;;;;;4696118;30;20429;-73
2022/01/01 00:21:53;;;;;;;19.05;5.13;;;13.80;99.90;;;;;;4680029;30;19977;-73
2022/01/01 00:24:19;;;;;;;23.58;6.18;;;13.80;99.90;;;;;;4695676;30;20051;-74
2022/01/01 00:26:44;;;;;;;23.90;5.70;;;13.90;99.90;;;;;;4695283;30;20045;-73
2022/01/01 00:29:10;;;;;;;21.55;6.03;;;13.90;99.90;;;;;;4695364;30;20042;-73
2022/01/01 00:31:36;;;;;;;26.10;6.60;;;13.90;99.90;;;;;;4695541;30;20069;-73
2022/01/01 00:34:02;;;;;;;20.38;6.45;;;13.90;99.90;;;;;;4695497;30;20077;-74
2022/01/01 00:36:28;;;;;;;25.60;6.82;;;13.80;99.90;;;;;;4695424;30;20045;-73
2022/01/01 00:38:54;;;;;;;16.85;5.00;;;13.90;99.90;;;;;;4695751;30;20073;-74
2022/01/01 00:41:20;;;;;;;24.27;6.07;;;13.90;99.90;;;;;;4695763;30;20041;-73
2022/01/01 00:43:46;;;;;;;17.48;5.22;;;13.90;99.90;;;;;;4695387;30;20053;-73
2022/01/01 00:46:12;;;;;;;20.73;5.93;;;13.90;99.90;;;;;;4695656;30;20048;-73
2022/01/01 00:48:38;;;;;;;;;;;13.90;99.90;;;;;;4695986;30;20100;-73
2022/01/01 00:51:04;;;;;;;18.98;4.55;;;13.90;99.90;;;;;;4695479;30;20352;-73
2022/01/01 00:53:30;;;;;;;25.85;6.15;;;13.90;99.90;;;;;;4695283;30;20057;-73
2022/01/01 00:55:56;;;;;;;;;;;13.90;99.90;;;;;;4695222;30;20033;-73
2022/01/01 00:58:21;;;;;;;18.30;4.97;;;13.90;99.90;;;;;;4695304;30;19919;-73
2022/01/01 01:00:47;;;;;;;22.08;5.38;;;13.80;99.90;;;;;;4695287;30;20073;-73
2022/01/01 01:03:16;;;;;;;18.90;5.55;;;13.80;99.90;;;;;;4679464;30;20060;-73
2022/01/01 01:05:44;;;;;;;20.83;5.78;;;13.90;99.90;;;;;;4695437;30;20061;-73
2022/01/01 01:08:11;;;;;;;15.68;4.85;;;13.80;99.90;;;;;;4695522;30;20097;-74
2022/01/01 01:10:38;;;;;;;17.58;5.10;;;13.90;99.90;;;;;;4695194;30;20052;-73
2022/01/01 01:13:06;;;;;;;23.10;5.47;;;13.90;99.90;;;;;;4694997;30;20096;-73
2022/01/01 01:15:32;;;;;;;20.13;5.35;;;13.90;99.90;;;;;;4695146;30;20029;-73
2022/01/01 01:17:58;;;;;;;;;;;13.90;99.90;;;;;;4694261;30;20104;-74
2022/01/01 01:20:25;;;;;;;17.77;4.43;;;13.90;99.90;;;;;;4694937;30;20241;-74
2022/01/01 01:22:51;;;;;;;15.65;5.68;;;13.90;99.90;;;;;;4695076;30;20088;-73
2022/01/01 01:25:17;;;;;;;26.08;4.93;;;13.80;99.90;;;;;;4694738;30;20054;-73
2022/01/01 01:27:44;;;;;;;21.27;4.80;;;13.80;99.90;;;;;;4678989;30;20052;-73
2022/01/01 01:30:13;;;;;;;18.73;5.38;;;13.80;99.90;;;;;;4694864;30;20087;-73
2022/01/01 01:32:39;;;;;;;15.25;4.53;;;13.80;99.90;;;;;;4693852;30;20033;-74
2022/01/01 01:35:06;;;;;;;20.33;5.00;;;13.90;99.90;;;;;;4694882;30;20037;-73
2022/01/01 01:37:32;;;;;;;16.88;3.92;;;13.90;99.90;;;;;;4694737;30;20401;-74
2022/01/01 01:39:58;;;;;;;22.67;4.50;;;13.90;99.90;;;;;;4694560;30;20025;-73
2022/01/01 01:42:26;;;;;;;16.80;4.68;;;13.90;99.90;;;;;;4694621;30;20049;-73
2022/01/01 01:44:54;;;;;;;22.95;5.10;;;14.00;99.90;;;;;;4694643;30;20065;-74
2022/01/01 01:47:29;;;;;;;14.90;4.20;;;14.00;99.90;;;;;;4694573;30;21704;-73
2022/01/01 01:49:56;;;;;;;8.95;2.78;;;14.00;99.90;;;;;;4694761;30;20042;-73
2022/01/01 01:52:22;;;;;;;20.20;5.30;;;14.00;99.90;;;;;;4694562;30;20038;-73
2022/01/01 01:54:49;;;;;;;22.23;4.70;;;14.00;99.90;;;;;;4694619;30;20025;-74
2022/01/01 01:57:15;;;;;;;10.52;2.97;;;13.90;99.90;;;;;;4694521;30;20046;-73
2022/01/01 01:59:44;;;;;;;19.13;4.72;;;13.90;99.90;;;;;;4678677;30;20049;-74
2022/01/01 02:02:10;;;;;;;21.60;4.47;;;13.90;99.90;;;;;;4694275;30;20117;-73
2022/01/01 02:04:36;;;;;;;17.83;4.32;;;13.90;99.90;;;;;;4694931;30;20109;-73
2022/01/01 02:07:05;;;;;;;30.52;5.75;;;13.80;99.90;;;;;;4696656;30;20501;-73
2022/01/01 02:09:31;;;;;;;22.40;4.82;;;13.80;99.90;;;;;;4698139;30;20033;-73
2022/01/01 02:11:59;;;;;;;27.40;5.32;;;13.80;99.90;;;;;;4697734;30;20203;-73
2022/01/01 02:14:37;;;;;;;25.55;4.40;;;13.80;99.90;;;;;;4698216;30;20037;-73
2022/01/01 02:19:30;;;;;;;22.00;5.20;;;13.80;99.90;;;;;;4698109;30;20026;-73
2022/01/01 02:21:59;;;;;;;17.73;4.10;;;13.80;99.90;;;;;;4698011;30;20163;-73
2022/01/01 02:24:25;;;;;;;21.35;4.88;;;13.80;99.90;;;;;;4682321;30;20033;-73
2022/01/01 02:26:52;;;;;;;29.35;5.28;;;13.80;99.90;;;;;;4697939;30;20085;-74
2022/01/01 02:29:18;;;;;;;18.77;3.72;;;13.80;99.90;;;;;;4682249;30;20119;-74
2022/01/01 02:31:44;;;;;;;;;;;13.80;99.90;;;;;;4698099;30;20069;-73
2022/01/01 02:34:10;;;;;;;18.42;4.63;;;13.80;99.90;;;;;;4697741;30;20312;-74
2022/01/01 02:36:39;;;;;;;24.48;5.10;;;13.80;99.90;;;;;;4697743;30;20132;-73
2022/01/01 02:39:20;;;;;;;21.35;4.55;;;13.80;99.90;;;;;;4697687;30;20025;-73
2022/01/01 02:41:50;;;;;;;17.38;4.03;;;13.80;99.90;;;;;;4697790;30;20040;-73
2022/01/01 02:44:16;;;;;;;18.13;4.90;;;13.80;99.90;;;;;;4697517;30;20409;-73
2022/01/01 02:46:42;;;;;;;21.42;5.05;;;13.80;99.90;;;;;;4697636;30;20042;-73
2022/01/01 02:49:08;;;;;;;23.60;5.25;;;13.80;99.90;;;;;;4697528;30;20521;-73
2022/01/01 02:51:34;;;;;;;26.60;5.15;;;13.80;99.90;;;;;;4697584;30;20064;-74
2022/01/01 02:54:00;;;;;;;20.17;4.90;;;13.80;99.90;;;;;;4697567;30;20076;-73
2022/01/01 02:56:26;;;;;;;16.35;4.00;;;13.80;99.90;;;;;;4696203;30;20113;-74
2022/01/01 02:58:52;;;;;;;12.75;3.30;;;13.80;99.90;;;;;;4681642;30;20468;-73
2022/01/01 03:01:18;;;;;;;30.88;4.72;;;13.90;99.90;;;;;;4697835;30;20026;-74
2022/01/01 03:03:46;;;;;;;21.27;4.63;;;13.90;99.90;;;;;;4697508;30;20099;-74
2022/01/01 03:06:19;;;;;;;17.75;3.28;;;13.90;99.90;;;;;;4696166;30;20104;-74
2022/01/01 03:08:45;;;;;;;22.80;4.60;;;14.00;99.90;;;;;;4697187;30;20060;-74
2022/01/01 03:11:11;;;;;;;20.98;4.63;;;14.00;99.90;;;;;;4697160;30;20513;-73
2022/01/01 03:13:37;;;;;;;23.73;5.47;;;14.10;99.90;;;;;;4697097;30;20232;-73
2022/01/01 03:16:03;;;;;;;28.10;5.80;;;14.10;99.90;;;;;;4681436;30;20034;-73
2022/01/01 03:18:29;;;;;;;20.33;4.53;;;14.10;99.90;;;;;;4696304;30;20040;-74
2022/01/01 03:20:54;;;;;;;24.17;5.70;;;14.20;99.90;;;;;;4697114;30;20478;-73
2022/01/01 03:23:20;;;;;;;23.63;5.22;;;14.20;99.90;;;;;;4697320;30;20466;-73
2022/01/01 03:25:46;;;;;;;13.35;3.55;;;14.20;99.90;;;;;;4697015;30;20044;-73
2022/01/01 03:28:12;;;;;;;24.42;6.68;;;14.20;99.90;;;;;;4697001;30;20056;-73
2022/01/01 03:30:38;;;;;;;24.60;4.93;;;14.30;99.90;;;;;;4695686;30;20049;-73
2022/01/01 03:33:03;;;;;;;23.52;4.72;;;14.30;99.90;;;;;;4696849;30;20046;-73
2022/01/01 03:35:29;;;;;;;23.75;5.35;;;14.30;99.90;;;;;;4696881;30;20556;-73
2022/01/01 03:37:55;;;;;;;26.95;5.38;;;14.20;99.90;;;;;;4696838;30;20030;-73
2022/01/01 03:40:21;;;;;;;22.05;5.18;;;14.20;99.90;;;;;;4696828;30;20494;-74
2022/01/01 03:42:46;;;;;;;26.63;5.13;;;14.30;99.90;;;;;;4692727;30;20068;-73
2022/01/01 03:45:12;;;;;;;27.83;5.10;;;14.20;99.90;;;;;;4679464;30;20067;-73
2022/01/01 03:47:38;;;;;;;36.53;6.10;;;14.30;99.90;;;;;;4678092;30;20053;-73
2022/01/01 03:50:04;;;;;;;28.08;6.15;;;14.30;99.90;;;;;;4679374;30;20098;-73
2022/01/01 03:52:30;;;;;;;29.40;6.10;;;14.30;99.90;;;;;;4678795;30;20129;-73
2022/01/01 03:54:56;;;;;;;16.02;4.05;;;14.40;99.90;;;;;;4663262;30;20385;-73
2022/01/01 03:57:21;;;;;;;13.80;2.58;;;14.50;99.90;;;;;;4678586;30;20112;-73
2022/01/01 03:59:47;;;;;;;30.30;4.90;;;14.60;99.90;;;;;;4678405;30;20121;-73
2022/01/01 04:02:14;;;;;;;33.03;5.38;;;14.60;99.90;;;;;;4678475;30;20113;-74
2022/01/01 04:04:40;;;;;;;25.48;5.47;;;14.60;99.90;;;;;;4678348;30;20108;-74
2022/01/01 04:07:08;;;;;;;34.20;5.80;;;14.70;99.90;;;;;;4678652;30;20556;-73
2022/01/01 04:09:34;;;;;;;17.83;4.78;;;14.60;99.90;;;;;;4664002;30;20129;-73
2022/01/01 04:12:00;;;;;;;21.13;4.72;;;14.60;99.90;;;;;;4678990;30;20200;-73
2022/01/01 04:14:25;;;;;;;29.45;6.20;;;14.60;99.90;;;;;;4663417;30;20081;-74
2022/01/01 04:16:53;;;;;;;13.02;3.10;;;14.60;99.90;;;;;;4679004;30;20074;-73
2022/01/01 04:19:23;;;;;;;11.98;3.40;;;14.60;99.90;;;;;;4678874;30;20041;-73
2022/01/01 04:21:48;;;;;;;16.35;4.70;;;14.70;99.90;;;;;;4678934;30;20045;-74
2022/01/01 04:24:14;;;;;;;12.80;3.92;;;14.70;99.90;;;;;;4678526;30;20427;-73
2022/01/01 04:26:40;;;;;;;23.73;3.72;;;14.70;99.90;;;;;;4663327;30;20042;-74
2022/01/01 04:29:06;;;;;;;22.77;4.22;;;14.80;99.90;;;;;;4678612;30;20046;-73
2022/01/01 04:31:32;;;;;;;;;;;14.80;99.90;;;;;;4663495;30;20578;-73
2022/01/01 04:33:57;;;;;;;25.15;4.85;;;14.90;99.90;;;;;;4678604;30;20051;-73
2022/01/01 04:36:23;;;;;;;14.82;3.58;;;14.90;99.90;;;;;;4663243;30;20078;-74
2022/01/01 04:38:49;;;;;;;;;;;15.00;99.90;;;;;;4678948;30;20046;-73
2022/01/01 04:41:16;;;;;;;22.38;5.28;;;15.10;99.90;;;;;;4662933;30;19933;-73
2022/01/01 04:43:43;;;;;;;15.38;3.13;;;15.00;99.90;;;;;;4690878;30;20278;-74
2022/01/01 04:46:10;;;;;;;17.42;3.50;;;15.00;99.90;;;;;;4695845;30;20516;-73
2022/01/01 04:48:37;;;;;;;34.38;6.47;;;15.00;99.90;;;;;;4695650;30;20029;-73
2022/01/01 04:51:08;;;;;;;10.90;3.97;;;14.90;99.90;;;;;;4695392;30;20037;-73
2022/01/01 04:53:35;;;;;;;20.45;5.78;;;14.90;99.90;;;;;;4695661;30;20061;-73
2022/01/01 04:56:05;;;;;;;24.75;6.65;;;14.90;99.90;;;;;;4695438;30;20486;-73
2022/01/01 04:58:31;;;;;;;19.40;6.22;;;15.00;99.90;;;;;;4695613;30;20478;-73
2022/01/01 05:00:57;;;;;;;19.85;5.47;;;15.00;99.90;;;;;;4695667;30;20105;-73
2022/01/01 05:03:22;;;;;;;24.23;7.00;;;14.90;99.90;;;;;;4695483;30;20413;-73
2022/01/01 05:05:48;;;;;;;31.38;5.82;;;14.90;99.90;;;;;;4695346;30;20033;-74
2022/01/01 05:08:14;;;;;;;21.83;5.55;;;14.90;99.90;;;;;;4679592;30;20378;-74
2022/01/01 05:10:40;;;;;;;23.70;6.00;;;14.90;99.90;;;;;;4695779;30;20039;-74
2022/01/01 05:13:06;;;;;;;18.98;5.90;;;14.90;99.90;;;;;;4695230;30;20097;-73
2022/01/01 05:15:32;;;;;;;22.58;6.55;;;14.90;99.90;;;;;;4694145;30;20038;-73
2022/01/01 05:17:58;;;;;;;35.72;8.10;;;14.90;99.90;;;;;;4695091;30;20502;-73
2022/01/01 05:20:23;;;;;;;26.40;6.25;;;14.90;99.90;;;;;;4695441;30;20041;-73
2022/01/01 05:22:49;;;;;;;21.52;6.05;;;14.90;99.90;;;;;;4695099;30;20124;-74
2022/01/01 05:25:15;;;;;;;21.20;5.75;;;14.90;99.90;;;;;;4694996;30;20034;-73
2022/01/01 05:27:42;;;;;;;25.73;6.65;;;15.00;99.90;;;;;;4695050;30;20046;-73
2022/01/01 05:30:09;;;;;;;19.00;4.90;;;15.10;99.90;;;;;;4695123;30;20096;-74
2022/01/01 05:32:35;;;;;;;20.58;6.20;;;15.20;99.90;;;;;;4694919;30;20040;-73
2022/01/01 05:35:00;;;;;;;15.35;4.65;;;15.20;99.90;;;;;;4695035;30;20037;-74
2022/01/01 05:37:26;;;;;;;25.50;7.00;;;15.30;99.90;;;;;;4694882;30;20045;-72
2022/01/01 05:39:52;;;;;;;20.02;4.50;;;15.30;99.90;;;;;;4694966;30;20122;-74
2022/01/01 05:42:18;;;;;;;26.95;5.07;;;15.30;99.90;;;;;;4694246;30;20120;-73
2022/01/01 05:44:43;;;;;;;16.05;4.20;;;15.40;99.90;;;;;;4694873;30;20124;-74
2022/01/01 05:47:09;;;;;;;25.48;5.95;;;15.30;99.90;;;;;;4694769;30;20076;-74
2022/01/01 05:49:35;;;;;;;33.80;8.10;;;15.30;99.90;;;;;;4695109;30;20037;-74
2022/01/01 05:52:00;;;;;;;34.88;6.13;;;15.30;99.90;;;;;;4695159;30;20540;-74
2022/01/01 05:54:26;;;;;;;30.02;6.40;;;15.20;99.90;;;;;;4679121;30;20033;-73
2022/01/01 05:56:52;;;;;;;28.02;6.93;;;15.20;99.90;;;;;;4694745;30;20073;-73
2022/01/01 05:59:18;;;;;;;26.67;5.53;;;15.10;99.90;;;;;;4694695;30;20064;-73
2022/01/01 06:01:43;;;;;;;30.42;6.22;;;15.10;99.90;;;;;;4694511;30;20048;-74
2022/01/01 06:04:09;;;;;;;32.03;6.85;;;15.10;99.90;;;;;;4694698;30;20045;-73
2022/01/01 06:06:35;;;;;;;30.08;7.72;;;15.20;99.90;;;;;;4694688;30;20528;-73
2022/01/01 06:09:01;;;;;;;27.80;6.18;;;15.20;99.90;;;;;;4679197;30;20042;-73
2022/01/01 06:11:26;;;;;;;27.00;6.45;;;15.20;99.90;;;;;;4678842;30;20482;-74
2022/01/01 06:13:52;;;;;;;26.17;6.22;;;15.30;99.90;;;;;;4694636;30;20037;-73
2022/01/01 06:16:18;;;;;;;16.00;3.80;;;15.30;99.90;;;;;;4694569;30;20077;-74
2022/01/01 06:18:43;;;;;;;28.80;6.90;;;15.30;99.90;;;;;;4694445;30;20183;-73
2022/01/01 06:21:09;;;;;;;13.85;4.25;;;15.30;99.90;;;;;;4694554;30;20045;-74
2022/01/01 06:23:37;;;;;;;29.60;7.25;;;15.40;99.90;;;;;;4694428;30;20123;-74
2022/01/01 06:26:04;;;;;;;25.67;6.65;;;15.40;99.90;;;;;;4678973;30;20172;-74
2022/01/01 06:28:30;;;;;;;37.22;6.22;;;15.40;99.90;;;;;;4694397;30;20044;-73
2022/01/01 06:30:56;;;;;;;28.73;8.02;;;15.50;99.90;;;;;;4694652;30;20438;-73
2022/01/01 06:33:22;;;;;;;26.75;7.25;;;15.50;99.90;;;;;;4694298;30;20055;-74
2022/01/01 06:35:48;;;;;;;41.60;9.95;;;15.40;99.90;;;;;;4694334;30;20037;-75
2022/01/01 06:38:15;;;;;;;28.13;7.47;;;15.30;99.90;;;;;;4694681;30;20038;-73
2022/01/01 06:40:42;;;;;;;27.63;5.80;;;15.30;99.90;;;;;;4694361;30;20057;-73
2022/01/01 06:43:09;;;;;;;16.83;6.72;;;15.30;99.90;;;;;;4689842;30;20060;-73
2022/01/01 06:45:35;;;;;;;35.13;9.43;;;15.30;99.90;;;;;;4677239;30;20407;-73
2022/01/01 06:48:02;;;;;;;24.15;8.30;;;15.20;99.90;;;;;;4661505;30;20045;-74
2022/01/01 06:50:28;;;;;;;19.02;6.72;;;15.20;99.90;;;;;;4677052;30;20120;-74
2022/01/01 06:52:54;;;;;;;26.60;7.05;;;15.20;99.90;;;;;;4677925;30;20121;-73
2022/01/01 06:55:20;;;;;;;21.17;6.32;;;15.10;99.90;;;;;;4680338;30;20046;-73
2022/01/01 06:57:46;;;;;;;13.80;5.25;;;15.00;99.90;;;;;;4680288;30;20042;-73
2022/01/01 07:00:13;;;;;;;16.98;4.57;;;15.00;99.90;;;;;;4680425;30;20081;-74
2022/01/01 07:02:43;;;;;;;13.85;4.28;;;14.90;99.90;;;;;;4680118;30;20065;-73
2022/01/01 07:05:10;;;;;;;23.33;6.20;;;14.90;99.90;;;;;;4664600;30;20557;-74
2022/01/01 07:07:36;;;;;;;21.52;4.78;;;14.90;99.90;;;;;;4680135;30;20076;-73
2022/01/01 07:10:04;;;;;;;16.95;4.65;;;14.90;99.90;;;;;;4680125;30;20412;-74
2022/01/01 07:12:30;;;;;;;23.48;5.43;;;14.90;99.90;;;;;;4680163;30;20062;-73
2022/01/01 07:14:55;;;;;;;19.25;5.07;;;14.90;99.90;;;;;;4664404;30;20034;-74
2022/01/01 07:17:21;;;;;;;15.38;4.10;;;15.00;99.90;;;;;;4680243;30;20498;-73
2022/01/01 07:19:47;;;;;;;25.60;5.28;;;14.90;99.90;;;;;;4679925;30;20045;-73
2022/01/01 07:22:13;;;;;;;19.38;3.05;;;14.80;99.90;;;;;;4679879;30;20098;-73
2022/01/01 07:24:39;;;;;;;18.80;3.35;;;14.70;99.90;;;;;;4679911;30;20463;-73
2022/01/01 07:27:05;;;;;;;11.43;3.15;;;14.60;99.90;;;;;;4679773;30;20035;-73
2022/01/01 07:29:31;;;;;;;10.02;2.50;;;14.50;99.90;;;;;;4679832;30;20113;-72
2022/01/01 07:31:57;;;;;;;18.17;3.33;;;14.40;99.90;;;;;;4679691;30;20061;-73
2022/01/01 07:34:22;;;;;;;13.45;3.70;;;14.50;99.90;;;;;;4679731;30;20546;-73
2022/01/01 07:36:49;;;;;;;14.55;2.92;;;14.50;99.80;;;;;;4679716;30;20042;-73
2022/01/01 07:39:14;;;;;;;19.25;3.33;;;14.50;99.60;;;;;;4679557;30;20040;-73
2022/01/01 07:41:40;;;;;;;18.67;3.72;;;14.50;99.40;;;;;;4664035;30;20504;-73
2022/01/01 07:44:06;;;;;;;;;;;14.40;99.20;;;;;;4693674;30;20176;-73
2022/01/01 07:46:32;;;;;;;16.63;3.60;;;14.30;99.20;;;;;;4696527;30;20372;-73
2022/01/01 07:48:58;;;;;;;16.75;3.53;;;14.20;99.10;;;;;;4696583;30;20478;-73
2022/01/01 07:51:24;;;;;;;18.23;4.50;;;14.10;99.10;;;;;;4696642;30;20042;-73
2022/01/01 07:53:50;;;;;;;17.95;3.42;;;14.00;99.10;;;;;;4696564;30;20041;-73
2022/01/01 07:56:15;;;;;;;23.58;3.72;;;14.00;99.10;;;;;;4696509;30;20048;-73
2022/01/01 07:58:41;;;;;;;19.38;3.50;;;13.90;99.00;;;;;;4696460;30;20034;-73
2022/01/01 08:01:07;;;;;;;21.40;3.78;;;13.90;99.00;;;;;;4696363;30;20041;-73
2022/01/01 08:03:33;;;;;;;26.23;4.28;;;13.80;99.00;;;;;;4694935;30;20490;-73
2022/01/01 08:05:59;;;;;;;7.93;2.05;;;13.80;98.90;;;;;;4696390;30;20048;-73
2022/01/01 08:08:24;;;;;;;19.08;3.72;;;13.70;98.90;;;;;;4696339;30;20037;-73
2022/01/01 08:10:50;;;;;;;20.30;3.97;;;13.70;99.00;;;;;;4696328;30;20124;-73
2022/01/01 08:13:24;;;;;;;21.35;3.88;;;13.70;99.00;;;;;;4696152;30;20078;-75
2022/01/01 08:15:51;;;;;;;19.98;3.90;;;13.60;99.00;;;;;;4696364;30;20565;-72
2022/01/01 08:18:18;;;;;;;17.15;3.83;;;13.60;98.90;;;;;;4696122;30;20036;-73
2022/01/01 08:20:44;;;;;;;18.60;4.45;;;13.50;98.90;;;;;;4696229;30;20394;-73
2022/01/01 08:23:10;;;;;;;;;;;13.50;98.90;;;;;;4681039;30;20038;-73
2022/01/01 08:25:36;;;;;;;20.25;2.88;;;13.40;98.90;;;;;;4696027;30;19918;-73
2022/01/01 08:28:02;;;;;;;30.20;5.20;;;13.40;98.80;;;;;;4695855;30;20037;-73
2022/01/01 08:30:28;;;;;;;23.92;4.20;;;13.40;98.80;;;;;;4695870;30;20086;-73
2022/01/01 08:33:01;;;;;;;18.30;3.50;;;13.40;98.80;;;;;;4695801;30;20041;-73
2022/01/01 08:35:31;;;;;;;26.38;4.95;;;13.30;98.80;;;;;;4695886;30;20046;-73
2022/01/01 08:37:56;;;;;;;26.40;4.82;;;13.30;98.80;;;;;;4694689;30;20037;-73
2022/01/01 08:40:24;;;;;;;10.95;3.28;;;13.30;98.90;;;;;;4695837;30;20116;-74
2022/01/01 08:42:49;;;;;;;23.45;4.25;;;13.30;98.80;;;;;;4694383;30;20072;-73
2022/01/01 08:45:15;;;;;;;19.48;4.03;;;13.30;98.80;;;;;;4694610;30;20401;-73
2022/01/01 08:47:41;;;;;;;16.58;2.83;;;13.20;98.80;;;;;;4695646;30;20041;-74
2022/01/01 08:50:08;;;;;;;10.55;3.28;;;13.20;98.70;;;;;;4695700;30;20508;-74
2022/01/01 08:52:33;;;;;;;14.07;2.67;;;13.20;99.00;;;;;;4695820;30;20049;-73
2022/01/01 08:54:59;;;;;;;14.35;3.30;;;13.20;98.70;;;;;;4695499;30;20040;-73
2022/01/01 08:57:25;;;;;;;16.92;3.80;;;13.20;98.60;;;;;;4695339;30;20482;-74
2022/01/01 08:59:52;;;;;;;15.43;3.35;;;13.10;98.60;;;;;;4695110;30;20120;-73
2022/01/01 09:02:18;;;;;;;16.15;3.97;;;13.10;98.50;;;;;;4695298;30;20045;-74
2022/01/01 09:04:43;;;;;;;9.98;2.75;;;13.10;98.50;;;;;;4695239;30;20401;-74
2022/01/01 09:07:09;;;;;;;19.58;4.20;;;13.10;98.40;;;;;;4694929;30;20038;-73
2022/01/01 09:09:35;;;;;;;24.95;4.30;;;13.10;98.40;;;;;;4695202;30;20038;-73
2022/01/01 09:12:01;;;;;;;17.05;3.58;;;13.10;98.40;;;;;;4695073;30;20101;-74
2022/01/01 09:14:27;;;;;;;26.38;3.92;;;13.00;98.40;;;;;;4695388;30;20375;-73
2022/01/01 09:16:53;;;;;;;;;;;13.00;98.40;;;;;;4695818;30;20093;-73
2022/01/01 09:19:19;;;;;;;25.10;4.55;;;13.00;98.50;;;;;;4695292;30;20310;-74
2022/01/01 09:21:45;;;;;;;22.35;4.10;;;13.00;98.50;;;;;;4695945;30;20120;-74
2022/01/01 09:24:11;;;;;;;23.33;3.30;;;13.00;98.50;;;;;;4695745;30;20042;-73
2022/01/01 09:26:37;;;;;;;26.95;4.03;;;13.00;98.60;;;;;;4695667;30;20092;-74
2022/01/01 09:29:04;;;;;;;24.60;4.00;;;13.10;98.60;;;;;;4695314;30;20136;-73
2022/01/01 09:31:31;;;;;;;23.65;4.28;;;13.20;98.50;;;;;;4695413;30;20042;-73
2022/01/01 09:33:57;;;;;;;22.95;3.65;;;13.20;98.40;;;;;;4695484;30;20053;-74
2022/01/01 09:36:22;;;;;;;27.48;4.68;;;13.30;98.40;;;;;;4679932;30;20057;-74
2022/01/01 09:38:48;;;;;;;17.02;4.05;;;13.40;98.30;;;;;;4695209;30;20037;-73
2022/01/01 09:41:15;;;;;;;18.08;3.25;;;13.40;98.30;;;;;;4695428;30;20124;-73
2022/01/01 09:43:41;;;;;;;20.63;4.38;;;13.60;98.10;;;;;;4695185;30;20068;-73
2022/01/01 09:46:12;;;;;;;16.98;3.22;;;13.70;98.10;;;;;;4695529;30;20064;-72
2022/01/01 09:48:38;;;;;;;19.42;3.65;;;13.70;98.00;;;;;;4679959;30;20041;-75
2022/01/01 09:51:04;;;;;;;21.42;4.75;;;13.80;97.80;;;;;;4678186;30;20034;-73
2022/01/01 09:53:31;;;;;;;19.48;3.33;;;13.90;97.70;;;;;;4691187;30;20618;-74
2022/01/01 09:55:58;;;;;;;23.60;4.00;;;13.90;97.70;;;;;;4692044;30;20040;-73
2022/01/01 09:58:26;;;;;;;21.38;4.13;;;14.00;97.60;;;;;;4693847;30;20450;-68
2022/01/01 10:00:52;;;;;;;21.33;4.07;;;14.10;97.60;;;;;;4693713;30;20062;-73
2022/01/01 10:03:32;;;;;;;19.25;4.40;;;14.20;97.50;;;;;;4678576;30;20041;-73
2022/01/01 10:06:01;;;;;;;20.75;4.40;;;14.20;97.30;;;;;;4693022;30;20096;-73
2022/01/01 10:08:27;;;;;;;27.58;3.92;;;14.30;97.30;;;;;;4695301;30;20117;-73
2022/01/01 10:10:53;;;;;;;18.08;4.35;;;14.40;97.50;;;;;;4695329;30;20048;-74
2022/01/01 10:13:26;;;;;;;28.20;5.00;;;14.70;97.60;;;;;;4694355;30;20045;-73
2022/01/01 10:15:54;;;;;;;28.35;4.10;;;14.90;97.40;;;;;;4695221;30;20029;-74
2022/01/01 10:18:25;;;;;;;16.88;4.10;;;15.20;97.40;;;;;;4694261;30;20034;-73
2022/01/01 10:21:00;;;;;;;22.88;3.42;;;15.40;96.80;;;;;;4694140;30;20056;-74
2022/01/01 10:23:29;;;;;;;29.40;4.80;;;15.60;96.60;;;;;;4693429;30;20037;-74
2022/01/01 10:29:06;;;;;;;20.50;4.03;;;16.00;96.00;;;;;;4695360;30;20141;-74
2022/01/01 10:31:33;;;;;;;22.98;4.55;;;16.10;95.50;;;;;;4697120;30;20465;-74
2022/01/01 10:33:59;;;;;;;20.80;4.03;;;16.10;95.30;;;;;;4696877;30;20131;-74
2022/01/01 10:36:25;;;;;;;;;;;16.20;95.10;;;;;;4682019;30;20037;-74
2022/01/01 10:38:51;;;;;;;26.73;4.85;;;16.20;94.70;;;;;;4697653;30;20391;-73
2022/01/01 10:41:18;;;;;;;20.60;4.00;;;16.30;94.70;;;;;;4681966;30;20128;-73
2022/01/01 10:43:46;;;;;;;28.05;3.92;;;16.30;94.60;;;;;;4697654;30;20053;-74
2022/01/01 10:46:16;;;;;;;31.98;3.53;;;16.40;94.60;;;;;;4696953;30;20044;-73
2022/01/01 10:49:19;;;;;;;16.75;4.13;;;16.40;94.60;;;;;;4697161;30;20053;-73
2022/01/01 10:51:36;;;;;;;20.98;3.50;;;16.60;94.60;;;;;;4696278;30;20451;-73
2022/01/01 10:54:03;;;;;;;21.25;4.25;;;16.80;94.30;;;;;;4697144;30;20073;-72
2022/01/01 10:56:36;;;;;;;26.10;5.20;;;16.90;94.30;;;;;;4697465;30;20053;-73
2022/01/01 10:59:03;;;;;;;29.92;6.07;;;17.00;93.90;;;;;;4697081;30;20033;-73
2022/01/01 11:01:33;;;;;;;18.92;3.20;;;17.20;93.80;;;;;;4696937;30;20033;-73
2022/01/01 11:04:00;;;;;;;21.70;5.25;;;17.20;93.60;;;;;;4697118;30;20165;-73
2022/01/01 11:06:32;;;;;;;29.25;4.82;;;17.30;93.30;;;;;;4696884;30;20501;-72
2022/01/01 11:08:58;;;;;;;22.30;4.15;;;17.30;93.40;;;;;;4697430;30;20037;-74
2022/01/01 11:11:24;;;;;;;19.25;3.10;;;17.50;93.50;;;;;;4695268;30;20026;-72
2022/01/01 11:13:51;;;;;;;27.90;4.63;;;17.60;92.90;;;;;;4696811;30;20057;-73
2022/01/01 11:16:19;;;;;;;14.63;3.38;;;17.60;93.00;;;;;;4696979;30;20084;-74
2022/01/01 11:18:45;;;;;;;26.20;5.30;;;17.70;92.50;;;;;;4696910;30;20041;-74
2022/01/01 11:21:13;;;;;;;26.30;4.10;;;17.70;92.40;;;;;;4696263;30;20065;-73
2022/01/01 11:23:40;;;;;;;23.30;4.20;;;17.80;92.10;;;;;;4696763;30;20033;-72
2022/01/01 11:26:07;;;;;;;19.48;3.95;;;17.90;92.10;;;;;;4696380;30;20703;-73
2022/01/01 11:28:33;;;;;;;24.95;4.75;;;17.90;91.90;;;;;;4696339;30;20136;-74
2022/01/01 11:31:13;;;;;;;25.98;5.57;;;17.90;91.80;;;;;;4696475;30;20116;-73
2022/01/01 11:33:54;;;;;;;19.75;4.13;;;17.80;91.20;;;;;;4696687;30;20481;-72
2022/01/01 11:36:24;;;;;;;25.15;5.65;;;17.60;90.90;;;;;;4695874;30;20470;-73
2022/01/01 11:38:52;;;;;;;28.45;4.53;;;17.30;90.80;;;;;;4695225;30;20034;-74
2022/01/01 11:41:18;;;;;;;19.27;4.00;;;17.10;91.00;;;;;;4696240;30;20030;-73
2022/01/01 11:43:51;;;;;;;32.35;5.80;;;16.80;91.30;;;;;;4695784;30;20458;-73
2022/01/01 11:46:19;;;;;;;36.92;5.65;;;16.80;91.60;;;;;;4695963;30;20130;-73
2022/01/01 11:48:56;;;;;;;18.60;4.05;;;16.80;92.00;;;;;;4694394;30;20069;-74
2022/01/01 11:51:52;;;;;;;27.05;4.38;;;17.10;92.10;;;;;;4695911;30;20383;-73
2022/01/01 11:54:34;;;;;;;30.05;5.47;;;17.30;91.90;;;;;;4696023;30;20112;-73
2022/01/01 11:57:05;;;;;;;20.23;4.10;;;17.50;91.50;;;;;;4695794;30;20026;-73
2022/01/01 11:59:37;;;;;;;13.55;3.22;;;17.40;91.20;;;;;;4696045;30;20172;-73
2022/01/01 12:02:06;;;;;;;34.25;5.40;;;17.40;91.20;;;;;;4680598;30;20037;-64
2022/01/01 12:04:37;;;;;;;18.92;3.20;;;17.50;91.30;;;;;;4696011;30;20093;-72
2022/01/01 12:07:18;;;;;;;21.25;3.17;;;17.60;90.80;;;;;;4695653;30;20375;-74
2022/01/01 12:10:03;;;;;;;29.27;5.18;;;17.30;90.30;;;;;;4695391;30;20108;-73
2022/01/01 12:12:56;;;;;;;19.95;4.13;;;17.10;90.40;;;;;;4680049;30;20507;-73
2022/01/01 12:15:28;;;;;;;24.40;3.92;;;17.00;91.00;;;;;;4695680;30;20049;-72
2022/01/01 12:17:58;;;;;;;21.63;3.40;;;17.20;91.20;;;;;;4695540;30;20260;-73
2022/01/01 12:20:41;;;;;;;26.05;4.90;;;17.40;91.20;;;;;;4695202;30;20026;-73
2022/01/01 12:23:11;;;;;;;22.35;4.03;;;17.60;90.90;;;;;;4695450;30;20030;-73
2022/01/01 12:25:38;;;;;;;21.52;3.65;;;17.70;90.90;;;;;;4695221;30;20033;-74
2022/01/01 12:28:08;;;;;;;21.25;4.70;;;17.70;90.40;;;;;;4694894;30;20112;-73
2022/01/01 12:30:51;;;;;;;22.13;3.30;;;17.60;90.00;;;;;;4695184;30;20042;-73
2022/01/01 12:33:36;;;;;;;16.15;4.40;;;17.60;90.20;;;;;;4694957;30;20037;-73
2022/01/01 12:36:09;;;;;;;19.02;3.08;;;17.40;89.60;;;;;;4695410;30;20041;-72
2022/01/01 12:38:39;;;;;;;22.50;2.83;;;17.10;89.30;;;;;;4695319;30;20486;-73
2022/01/01 12:41:15;;;;;;;27.85;4.25;;;16.80;89.80;;;;;;4694000;30;20525;-73
2022/01/01 12:43:49;;;;;;;26.50;4.50;;;16.50;90.10;;;;;;4694814;30;20140;-74
2022/01/01 12:46:19;;;;;;;12.40;3.70;;;16.30;90.30;;;;;;4694526;30;20321;-74
2022/01/01 12:48:45;;;;;;;20.63;3.70;;;16.10;90.60;;;;;;4694814;30;20556;-73